sensor_id;sensor_type;location;lat;lon;timestamp;temperature;humidity
30628;DHT22;17394;50.890;4.724;2023-05-07T00:00:04;13.60;99.90
30628;DHT22;17394;50.890;4.724;2023-05-07T00:02:33;13.60;99.90
30628;DHT22;17394;50.890;4.724;2023-05-07T00:04:59;13.60;99.90
30628;DHT22;17394;50.890;4.724;2023-05-07T00:07:25;13.70;99.90
30628;DHT22;17394;50.890;4.724;2023-05-07T00:09:51;13.70;99.90
30628;DHT22;17394;50.890;4.724;2023-05-07T00:12:18;13.70;99.90
30628;DHT22;17394;50.890;4.724;2023-05-07T00:14:44;13.70;99.90
30628;DHT22;17394;50.890;4.724;2023-05-07T00:17:11;13.70;99.90
30628;DHT22;17394;50.890;4.724;2023-05-07T00:19:36;13.80;99.90
30628;DHT22;17394;50.890;4.724;2023-05-07T00:22:02;13.80;99.90
30628;DHT22;17394;50.890;4.724;2023-05-07T00:24:28;13.80;99.90
30628;DHT22;17394;50.890;4.724;2023-05-07T00:26:55;13.80;99.90
30628;DHT22;17394;50.890;4.724;2023-05-07T00:29:21;13.80;99.90
30628;DHT22;17394;50.890;4.724;2023-05-07T00:31:48;13.80;99.90
30628;DHT22;17394;50.890;4.724;2023-05-07T00:34:15;13.90;99.90
30628;DHT22;17394;50.890;4.724;2023-05-07T00:36:41;13.90;99.90
30628;DHT22;17394;50.890;4.724;2023-05-07T00:39:08;13.90;99.90
30628;DHT22;17394;50.890;4.724;2023-05-07T00:41:34;13.90;99.90
30628;DHT22;17394;50.890;4.724;2023-05-07T00:44:00;13.90;99.90
30628;DHT22;17394;50.890;4.724;2023-05-07T00:46:27;13.90;99.90
30628;DHT22;17394;50.890;4.724;2023-05-07T00:48:54;13.80;99.90
30628;DHT22;17394;50.890;4.724;2023-05-07T00:51:20;13.80;99.90
30628;DHT22;17394;50.890;4.724;2023-05-07T00:53:49;13.80;99.90
30628;DHT22;17394;50.890;4.724;2023-05-07T00:56:20;13.80;99.90
30628;DHT22;17394;50.890;4.724;2023-05-07T00:58:46;13.80;99.90
30628;DHT22;17394;50.890;4.724;2023-05-07T01:01:12;13.80;99.90
30628;DHT22;17394;50.890;4.724;2023-05-07T01:03:38;13.80;99.90
30628;DHT22;17394;50.890;4.724;2023-05-07T01:06:04;13.80;99.90
30628;DHT22;17394;50.890;4.724;2023-05-07T01:08:33;13.80;99.90
30628;DHT22;17394;50.890;4.724;2023-05-07T01:11:00;13.80;99.90
30628;DHT22;17394;50.890;4.724;2023-05-07T01:13:27;13.80;99.90
30628;DHT22;17394;50.890;4.724;2023-05-07T01:15:53;13.80;99.90
30628;DHT22;17394;50.890;4.724;2023-05-07T01:18:19;13.80;99.90
30628;DHT22;17394;50.890;4.724;2023-05-07T01:20:45;13.80;99.90
30628;DHT22;17394;50.890;4.724;2023-05-07T01:23:11;13.80;99.90
30628;DHT22;17394;50.890;4.724;2023-05-07T01:25:38;13.80;99.90
30628;DHT22;17394;50.890;4.724;2023-05-07T01:28:04;13.80;99.90
30628;DHT22;17394;50.890;4.724;2023-05-07T01:30:31;13.80;99.90
30628;DHT22;17394;50.890;4.724;2023-05-07T01:33:00;13.80;99.90
30628;DHT22;17394;50.890;4.724;2023-05-07T01:35:29;13.80;99.90
30628;DHT22;17394;50.890;4.724;2023-05-07T01:37:56;13.80;99.90
30628;DHT22;17394;50.890;4.724;2023-05-07T01:40:22;13.90;99.90
30628;DHT22;17394;50.890;4.724;2023-05-07T01:42:48;13.90;99.90
30628;DHT22;17394;50.890;4.724;2023-05-07T01:45:14;13.90;99.90
30628;DHT22;17394;50.890;4.724;2023-05-07T01:47:40;13.90;99.90
30628;DHT22;17394;50.890;4.724;2023-05-07T01:50:06;13.90;99.90
30628;DHT22;17394;50.890;4.724;2023-05-07T01:52:33;13.90;99.90
30628;DHT22;17394;50.890;4.724;2023-05-07T01:54:59;13.90;99.90
30628;DHT22;17394;50.890;4.724;2023-05-07T01:57:26;14.00;99.90
30628;DHT22;17394;50.890;4.724;2023-05-07T01:59:52;14.00;99.90
30628;DHT22;17394;50.890;4.724;2023-05-07T02:02:18;14.00;99.90
30628;DHT22;17394;50.890;4.724;2023-05-07T02:04:44;14.00;99.90
30628;DHT22;17394;50.890;4.724;2023-05-07T02:07:10;14.00;99.90
30628;DHT22;17394;50.890;4.724;2023-05-07T02:09:35;14.00;99.90
30628;DHT22;17394;50.890;4.724;2023-05-07T02:12:01;14.00;99.90
30628;DHT22;17394;50.890;4.724;2023-05-07T02:14:27;14.00;99.90
30628;DHT22;17394;50.890;4.724;2023-05-07T02:16:53;14.00;99.90
30628;DHT22;17394;50.890;4.724;2023-05-07T02:19:19;14.00;99.90
30628;DHT22;17394;50.890;4.724;2023-05-07T02:21:46;14.00;99.90
30628;DHT22;17394;50.890;4.724;2023-05-07T02:24:13;14.00;99.90
30628;DHT22;17394;50.890;4.724;2023-05-07T02:26:42;14.00;99.90
30628;DHT22;17394;50.890;4.724;2023-05-07T02:29:08;14.00;99.90
30628;DHT22;17394;50.890;4.724;2023-05-07T02:31:34;14.10;99.90
30628;DHT22;17394;50.890;4.724;2023-05-07T02:34:00;14.00;99.90
30628;DHT22;17394;50.890;4.724;2023-05-07T02:36:26;14.00;99.90
30628;DHT22;17394;50.890;4.724;2023-05-07T02:38:52;14.10;99.90
30628;DHT22;17394;50.890;4.724;2023-05-07T02:41:18;14.10;99.90
30628;DHT22;17394;50.890;4.724;2023-05-07T02:43:44;14.00;99.90
30628;DHT22;17394;50.890;4.724;2023-05-07T02:46:10;14.00;99.90
30628;DHT22;17394;50.890;4.724;2023-05-07T02:48:36;14.00;99.90
30628;DHT22;17394;50.890;4.724;2023-05-07T02:51:02;14.00;99.90
30628;DHT22;17394;50.890;4.724;2023-05-07T02:53:28;14.00;99.90
30628;DHT22;17394;50.890;4.724;2023-05-07T02:55:55;14.00;99.90
30628;DHT22;17394;50.890;4.724;2023-05-07T02:58:22;14.00;99.90
30628;DHT22;17394;50.890;4.724;2023-05-07T03:00:48;14.00;99.90
30628;DHT22;17394;50.890;4.724;2023-05-07T03:03:14;14.00;99.90
30628;DHT22;17394;50.890;4.724;2023-05-07T03:05:40;14.10;99.90
30628;DHT22;17394;50.890;4.724;2023-05-07T03:08:06;14.10;99.90
30628;DHT22;17394;50.890;4.724;2023-05-07T03:10:33;14.00;99.90
30628;DHT22;17394;50.890;4.724;2023-05-07T03:12:59;14.00;99.90
30628;DHT22;17394;50.890;4.724;2023-05-07T03:15:25;14.00;99.90
30628;DHT22;17394;50.890;4.724;2023-05-07T03:17:51;14.00;99.90
30628;DHT22;17394;50.890;4.724;2023-05-07T03:20:17;14.00;99.90
30628;DHT22;17394;50.890;4.724;2023-05-07T03:22:43;14.00;99.90
30628;DHT22;17394;50.890;4.724;2023-05-07T03:25:10;14.10;99.90
30628;DHT22;17394;50.890;4.724;2023-05-07T03:27:37;14.10;99.90
30628;DHT22;17394;50.890;4.724;2023-05-07T03:30:03;14.10;99.90
30628;DHT22;17394;50.890;4.724;2023-05-07T03:32:29;14.10;99.90
30628;DHT22;17394;50.890;4.724;2023-05-07T03:34:55;14.10;99.90
30628;DHT22;17394;50.890;4.724;2023-05-07T03:37:21;14.10;99.90
30628;DHT22;17394;50.890;4.724;2023-05-07T03:39:48;14.10;99.90
30628;DHT22;17394;50.890;4.724;2023-05-07T03:42:14;14.10;99.90
30628;DHT22;17394;50.890;4.724;2023-05-07T03:44:40;14.10;99.90
30628;DHT22;17394;50.890;4.724;2023-05-07T03:47:06;14.10;99.90
30628;DHT22;17394;50.890;4.724;2023-05-07T03:49:33;14.10;99.90
30628;DHT22;17394;50.890;4.724;2023-05-07T03:51:59;14.10;99.90
30628;DHT22;17394;50.890;4.724;2023-05-07T03:54:25;14.10;99.90
30628;DHT22;17394;50.890;4.724;2023-05-07T03:56:51;14.10;99.90
30628;DHT22;17394;50.890;4.724;2023-05-07T03:59:17;14.10;99.90
30628;DHT22;17394;50.890;4.724;2023-05-07T04:01:43;14.10;99.90
30628;DHT22;17394;50.890;4.724;2023-05-07T04:04:09;14.10;99.90
30628;DHT22;17394;50.890;4.724;2023-05-07T04:06:35;14.10;99.90
30628;DHT22;17394;50.890;4.724;2023-05-07T04:09:01;14.10;99.90
30628;DHT22;17394;50.890;4.724;2023-05-07T04:11:27;14.20;99.90
30628;DHT22;17394;50.890;4.724;2023-05-07T04:13:53;14.20;99.90
30628;DHT22;17394;50.890;4.724;2023-05-07T04:16:19;14.20;99.90
30628;DHT22;17394;50.890;4.724;2023-05-07T04:18:45;14.20;99.90
30628;DHT22;17394;50.890;4.724;2023-05-07T04:21:15;14.20;99.90
30628;DHT22;17394;50.890;4.724;2023-05-07T04:23:42;14.20;99.90
30628;DHT22;17394;50.890;4.724;2023-05-07T04:26:08;14.20;99.90
30628;DHT22;17394;50.890;4.724;2023-05-07T04:28:38;14.20;99.90
30628;DHT22;17394;50.890;4.724;2023-05-07T04:31:04;14.10;99.90
30628;DHT22;17394;50.890;4.724;2023-05-07T04:33:31;14.10;99.90
30628;DHT22;17394;50.890;4.724;2023-05-07T04:35:57;14.10;99.90
30628;DHT22;17394;50.890;4.724;2023-05-07T04:38:31;14.10;99.90
30628;DHT22;17394;50.890;4.724;2023-05-07T04:41:02;14.10;99.90
30628;DHT22;17394;50.890;4.724;2023-05-07T04:43:34;14.10;99.90
30628;DHT22;17394;50.890;4.724;2023-05-07T04:46:00;14.10;99.90
30628;DHT22;17394;50.890;4.724;2023-05-07T04:48:26;14.20;99.90
30628;DHT22;17394;50.890;4.724;2023-05-07T04:50:58;14.20;99.90
30628;DHT22;17394;50.890;4.724;2023-05-07T04:53:25;14.20;99.90
30628;DHT22;17394;50.890;4.724;2023-05-07T04:55:55;14.20;99.90
30628;DHT22;17394;50.890;4.724;2023-05-07T04:58:22;14.20;99.90
30628;DHT22;17394;50.890;4.724;2023-05-07T05:00:48;14.30;99.90
30628;DHT22;17394;50.890;4.724;2023-05-07T05:03:15;14.30;99.90
30628;DHT22;17394;50.890;4.724;2023-05-07T05:05:40;14.40;99.90
30628;DHT22;17394;50.890;4.724;2023-05-07T05:08:06;14.50;99.90
30628;DHT22;17394;50.890;4.724;2023-05-07T05:10:32;14.50;99.90
30628;DHT22;17394;50.890;4.724;2023-05-07T05:12:57;14.60;99.90
30628;DHT22;17394;50.890;4.724;2023-05-07T05:15:23;14.70;99.90
30628;DHT22;17394;50.890;4.724;2023-05-07T05:17:48;14.80;99.90
30628;DHT22;17394;50.890;4.724;2023-05-07T05:20:14;14.90;99.90
30628;DHT22;17394;50.890;4.724;2023-05-07T05:22:41;15.00;99.90
30628;DHT22;17394;50.890;4.724;2023-05-07T05:25:06;15.10;99.90
30628;DHT22;17394;50.890;4.724;2023-05-07T05:27:32;15.10;99.90
30628;DHT22;17394;50.890;4.724;2023-05-07T05:29:58;15.20;99.90
30628;DHT22;17394;50.890;4.724;2023-05-07T05:32:23;15.20;99.90
30628;DHT22;17394;50.890;4.724;2023-05-07T05:34:49;15.30;99.90
30628;DHT22;17394;50.890;4.724;2023-05-07T05:37:15;15.40;99.90
30628;DHT22;17394;50.890;4.724;2023-05-07T05:39:40;15.40;99.90
30628;DHT22;17394;50.890;4.724;2023-05-07T05:42:07;15.50;99.90
30628;DHT22;17394;50.890;4.724;2023-05-07T05:44:33;15.60;99.90
30628;DHT22;17394;50.890;4.724;2023-05-07T05:46:59;15.60;99.90
30628;DHT22;17394;50.890;4.724;2023-05-07T05:49:24;15.60;99.90
30628;DHT22;17394;50.890;4.724;2023-05-07T05:51:50;15.70;99.90
30628;DHT22;17394;50.890;4.724;2023-05-07T05:54:16;15.70;99.90
30628;DHT22;17394;50.890;4.724;2023-05-07T05:56:42;15.80;99.90
30628;DHT22;17394;50.890;4.724;2023-05-07T05:59:07;15.90;99.90
30628;DHT22;17394;50.890;4.724;2023-05-07T06:01:33;15.90;99.90
30628;DHT22;17394;50.890;4.724;2023-05-07T06:03:59;16.00;99.90
30628;DHT22;17394;50.890;4.724;2023-05-07T06:06:24;16.10;99.90
30628;DHT22;17394;50.890;4.724;2023-05-07T06:08:51;16.10;99.90
30628;DHT22;17394;50.890;4.724;2023-05-07T06:11:16;16.20;99.90
30628;DHT22;17394;50.890;4.724;2023-05-07T06:13:42;16.40;99.90
30628;DHT22;17394;50.890;4.724;2023-05-07T06:16:08;16.40;99.90
30628;DHT22;17394;50.890;4.724;2023-05-07T06:18:33;16.50;99.90
30628;DHT22;17394;50.890;4.724;2023-05-07T06:21:01;16.50;99.90
30628;DHT22;17394;50.890;4.724;2023-05-07T06:23:27;16.60;99.90
30628;DHT22;17394;50.890;4.724;2023-05-07T06:25:52;16.60;99.90
30628;DHT22;17394;50.890;4.724;2023-05-07T06:28:18;16.70;99.90
30628;DHT22;17394;50.890;4.724;2023-05-07T06:30:44;16.70;99.90
30628;DHT22;17394;50.890;4.724;2023-05-07T06:33:09;16.80;99.90
30628;DHT22;17394;50.890;4.724;2023-05-07T06:35:35;16.90;99.90
30628;DHT22;17394;50.890;4.724;2023-05-07T06:38:01;16.90;99.90
30628;DHT22;17394;50.890;4.724;2023-05-07T06:40:26;17.00;99.90
30628;DHT22;17394;50.890;4.724;2023-05-07T06:42:52;16.90;99.90
30628;DHT22;17394;50.890;4.724;2023-05-07T06:45:19;16.80;99.90
30628;DHT22;17394;50.890;4.724;2023-05-07T06:47:44;16.80;99.90
30628;DHT22;17394;50.890;4.724;2023-05-07T06:50:10;16.70;99.90
30628;DHT22;17394;50.890;4.724;2023-05-07T06:52:36;16.60;99.90
30628;DHT22;17394;50.890;4.724;2023-05-07T06:55:02;16.50;99.90
30628;DHT22;17394;50.890;4.724;2023-05-07T06:57:27;16.50;99.90
30628;DHT22;17394;50.890;4.724;2023-05-07T06:59:53;16.50;99.90
30628;DHT22;17394;50.890;4.724;2023-05-07T07:02:18;16.50;99.90
30628;DHT22;17394;50.890;4.724;2023-05-07T07:04:44;16.50;99.90
30628;DHT22;17394;50.890;4.724;2023-05-07T07:07:10;16.50;99.90
30628;DHT22;17394;50.890;4.724;2023-05-07T07:09:36;16.60;99.90
30628;DHT22;17394;50.890;4.724;2023-05-07T07:12:02;16.70;99.90
30628;DHT22;17394;50.890;4.724;2023-05-07T07:14:28;16.70;99.90
30628;DHT22;17394;50.890;4.724;2023-05-07T07:16:54;16.80;99.90
30628;DHT22;17394;50.890;4.724;2023-05-07T07:19:20;16.80;99.90
30628;DHT22;17394;50.890;4.724;2023-05-07T07:21:46;16.90;99.90
30628;DHT22;17394;50.890;4.724;2023-05-07T07:24:13;16.90;99.90
30628;DHT22;17394;50.890;4.724;2023-05-07T07:26:38;17.00;99.90
30628;DHT22;17394;50.890;4.724;2023-05-07T07:29:05;17.00;99.90
30628;DHT22;17394;50.890;4.724;2023-05-07T07:31:32;17.10;99.90
30628;DHT22;17394;50.890;4.724;2023-05-07T07:33:58;17.20;99.90
30628;DHT22;17394;50.890;4.724;2023-05-07T07:36:24;17.30;99.90
30628;DHT22;17394;50.890;4.724;2023-05-07T07:38:51;17.30;99.90
30628;DHT22;17394;50.890;4.724;2023-05-07T07:41:17;17.40;99.90
30628;DHT22;17394;50.890;4.724;2023-05-07T07:43:43;17.50;99.90
30628;DHT22;17394;50.890;4.724;2023-05-07T07:46:09;17.50;99.90
30628;DHT22;17394;50.890;4.724;2023-05-07T07:48:35;17.50;99.90
30628;DHT22;17394;50.890;4.724;2023-05-07T07:51:01;17.50;99.90
30628;DHT22;17394;50.890;4.724;2023-05-07T07:53:27;17.50;99.90
30628;DHT22;17394;50.890;4.724;2023-05-07T07:55:53;17.50;99.90
30628;DHT22;17394;50.890;4.724;2023-05-07T07:58:19;17.40;99.90
30628;DHT22;17394;50.890;4.724;2023-05-07T08:00:45;17.50;99.90
30628;DHT22;17394;50.890;4.724;2023-05-07T08:03:12;17.60;99.90
30628;DHT22;17394;50.890;4.724;2023-05-07T08:05:38;17.60;99.90
30628;DHT22;17394;50.890;4.724;2023-05-07T08:08:04;17.60;99.90
30628;DHT22;17394;50.890;4.724;2023-05-07T08:10:30;17.60;99.90
30628;DHT22;17394;50.890;4.724;2023-05-07T08:13:00;17.60;99.90
30628;DHT22;17394;50.890;4.724;2023-05-07T08:15:25;17.60;99.90
30628;DHT22;17394;50.890;4.724;2023-05-07T08:17:51;17.60;99.90
30628;DHT22;17394;50.890;4.724;2023-05-07T08:20:18;17.60;99.90
30628;DHT22;17394;50.890;4.724;2023-05-07T08:22:44;17.60;99.90
30628;DHT22;17394;50.890;4.724;2023-05-07T08:25:10;17.50;99.90
30628;DHT22;17394;50.890;4.724;2023-05-07T08:27:36;17.50;99.90
30628;DHT22;17394;50.890;4.724;2023-05-07T08:30:02;17.50;99.90
30628;DHT22;17394;50.890;4.724;2023-05-07T08:32:28;17.60;99.90
30628;DHT22;17394;50.890;4.724;2023-05-07T08:34:54;17.60;99.90
30628;DHT22;17394;50.890;4.724;2023-05-07T08:37:20;17.70;99.90
30628;DHT22;17394;50.890;4.724;2023-05-07T08:39:46;17.70;99.90
30628;DHT22;17394;50.890;4.724;2023-05-07T08:42:12;17.60;99.90
30628;DHT22;17394;50.890;4.724;2023-05-07T08:44:38;17.60;99.90
30628;DHT22;17394;50.890;4.724;2023-05-07T08:47:06;17.60;99.90
30628;DHT22;17394;50.890;4.724;2023-05-07T08:49:33;17.70;99.90
30628;DHT22;17394;50.890;4.724;2023-05-07T08:51:59;17.70;99.90
30628;DHT22;17394;50.890;4.724;2023-05-07T08:54:25;17.70;99.90
30628;DHT22;17394;50.890;4.724;2023-05-07T08:56:51;17.70;99.90
30628;DHT22;17394;50.890;4.724;2023-05-07T08:59:17;17.70;99.90
30628;DHT22;17394;50.890;4.724;2023-05-07T09:01:43;17.70;99.90
30628;DHT22;17394;50.890;4.724;2023-05-07T09:04:09;17.70;99.90
30628;DHT22;17394;50.890;4.724;2023-05-07T09:06:36;17.70;99.90
30628;DHT22;17394;50.890;4.724;2023-05-07T09:09:03;17.70;99.90
30628;DHT22;17394;50.890;4.724;2023-05-07T09:11:30;17.60;99.90
30628;DHT22;17394;50.890;4.724;2023-05-07T09:13:57;17.50;99.90
30628;DHT22;17394;50.890;4.724;2023-05-07T09:16:25;17.50;99.90
30628;DHT22;17394;50.890;4.724;2023-05-07T09:18:51;17.40;99.90
30628;DHT22;17394;50.890;4.724;2023-05-07T09:21:18;17.40;99.90
30628;DHT22;17394;50.890;4.724;2023-05-07T09:23:44;17.40;99.90
30628;DHT22;17394;50.890;4.724;2023-05-07T09:26:10;17.40;99.90
30628;DHT22;17394;50.890;4.724;2023-05-07T09:28:39;17.40;99.90
30628;DHT22;17394;50.890;4.724;2023-05-07T09:31:10;17.40;99.90
30628;DHT22;17394;50.890;4.724;2023-05-07T09:33:37;17.40;99.90
30628;DHT22;17394;50.890;4.724;2023-05-07T09:36:05;17.50;99.90
30628;DHT22;17394;50.890;4.724;2023-05-07T09:38:32;17.50;99.90
30628;DHT22;17394;50.890;4.724;2023-05-07T09:41:13;17.60;99.90
30628;DHT22;17394;50.890;4.724;2023-05-07T09:43:42;17.60;99.90
30628;DHT22;17394;50.890;4.724;2023-05-07T09:46:14;17.60;99.90
30628;DHT22;17394;50.890;4.724;2023-05-07T09:48:49;17.60;99.90
30628;DHT22;17394;50.890;4.724;2023-05-07T09:53:45;17.40;99.90
30628;DHT22;17394;50.890;4.724;2023-05-07T09:56:12;17.40;99.90
30628;DHT22;17394;50.890;4.724;2023-05-07T09:58:38;17.40;99.90
30628;DHT22;17394;50.890;4.724;2023-05-07T10:01:10;17.40;99.90
30628;DHT22;17394;50.890;4.724;2023-05-07T10:03:37;17.30;99.90
30628;DHT22;17394;50.890;4.724;2023-05-07T10:06:05;17.30;99.90
30628;DHT22;17394;50.890;4.724;2023-05-07T10:08:31;17.30;99.90
30628;DHT22;17394;50.890;4.724;2023-05-07T10:10:57;17.40;99.90
30628;DHT22;17394;50.890;4.724;2023-05-07T10:13:22;17.40;99.90
30628;DHT22;17394;50.890;4.724;2023-05-07T10:15:49;17.50;99.90
30628;DHT22;17394;50.890;4.724;2023-05-07T10:18:15;17.50;99.90
30628;DHT22;17394;50.890;4.724;2023-05-07T10:20:42;17.60;99.90
30628;DHT22;17394;50.890;4.724;2023-05-07T10:23:08;17.50;99.90
30628;DHT22;17394;50.890;4.724;2023-05-07T10:25:38;17.50;99.90
30628;DHT22;17394;50.890;4.724;2023-05-07T10:28:04;17.50;99.90
30628;DHT22;17394;50.890;4.724;2023-05-07T10:33:16;17.50;99.90
30628;DHT22;17394;50.890;4.724;2023-05-07T10:35:47;17.50;99.90
30628;DHT22;17394;50.890;4.724;2023-05-07T10:38:13;17.50;99.90
30628;DHT22;17394;50.890;4.724;2023-05-07T10:40:39;17.60;99.90
30628;DHT22;17394;50.890;4.724;2023-05-07T10:43:05;17.60;99.90
30628;DHT22;17394;50.890;4.724;2023-05-07T10:45:31;17.70;99.90
30628;DHT22;17394;50.890;4.724;2023-05-07T10:50:33;17.70;99.90
30628;DHT22;17394;50.890;4.724;2023-05-07T10:55:40;17.70;99.90
30628;DHT22;17394;50.890;4.724;2023-05-07T11:00:50;17.80;99.90
30628;DHT22;17394;50.890;4.724;2023-05-07T11:03:17;17.90;99.90
30628;DHT22;17394;50.890;4.724;2023-05-07T11:05:42;17.90;99.90
30628;DHT22;17394;50.890;4.724;2023-05-07T11:08:08;17.90;99.90
30628;DHT22;17394;50.890;4.724;2023-05-07T11:10:53;17.90;99.90
30628;DHT22;17394;50.890;4.724;2023-05-07T11:16:04;18.00;99.90
30628;DHT22;17394;50.890;4.724;2023-05-07T11:18:49;18.00;99.90
30628;DHT22;17394;50.890;4.724;2023-05-07T11:23:59;18.10;99.90
30628;DHT22;17394;50.890;4.724;2023-05-07T11:26:25;18.00;99.90
30628;DHT22;17394;50.890;4.724;2023-05-07T11:28:51;18.00;99.90
30628;DHT22;17394;50.890;4.724;2023-05-07T11:31:25;18.00;99.90
30628;DHT22;17394;50.890;4.724;2023-05-07T11:33:55;18.00;99.90
30628;DHT22;17394;50.890;4.724;2023-05-07T11:36:22;18.20;99.90
30628;DHT22;17394;50.890;4.724;2023-05-07T11:38:48;18.20;99.90
30628;DHT22;17394;50.890;4.724;2023-05-07T11:41:15;18.20;99.90
30628;DHT22;17394;50.890;4.724;2023-05-07T11:43:57;18.00;99.90
30628;DHT22;17394;50.890;4.724;2023-05-07T11:46:23;18.00;99.90
30628;DHT22;17394;50.890;4.724;2023-05-07T11:48:49;18.10;99.90
30628;DHT22;17394;50.890;4.724;2023-05-07T11:51:21;18.20;99.90
30628;DHT22;17394;50.890;4.724;2023-05-07T11:53:48;18.50;99.90
30628;DHT22;17394;50.890;4.724;2023-05-07T11:56:15;18.80;99.90
30628;DHT22;17394;50.890;4.724;2023-05-07T11:58:45;18.90;99.90
30628;DHT22;17394;50.890;4.724;2023-05-07T12:01:12;18.80;99.90
30628;DHT22;17394;50.890;4.724;2023-05-07T12:03:39;18.80;99.90
30628;DHT22;17394;50.890;4.724;2023-05-07T12:06:08;18.80;99.90
30628;DHT22;17394;50.890;4.724;2023-05-07T12:08:36;19.00;99.90
30628;DHT22;17394;50.890;4.724;2023-05-07T12:11:15;19.20;99.90
30628;DHT22;17394;50.890;4.724;2023-05-07T12:13:43;19.30;99.90
30628;DHT22;17394;50.890;4.724;2023-05-07T12:16:09;19.30;99.90
30628;DHT22;17394;50.890;4.724;2023-05-07T12:18:35;19.40;99.90
30628;DHT22;17394;50.890;4.724;2023-05-07T12:21:01;19.40;99.90
30628;DHT22;17394;50.890;4.724;2023-05-07T12:23:27;19.40;99.90
30628;DHT22;17394;50.890;4.724;2023-05-07T12:25:54;19.50;99.90
30628;DHT22;17394;50.890;4.724;2023-05-07T12:28:20;19.60;99.90
30628;DHT22;17394;50.890;4.724;2023-05-07T12:30:46;19.70;99.90
30628;DHT22;17394;50.890;4.724;2023-05-07T12:33:16;19.70;99.90
30628;DHT22;17394;50.890;4.724;2023-05-07T12:35:42;19.80;99.90
30628;DHT22;17394;50.890;4.724;2023-05-07T12:38:12;19.80;99.90
30628;DHT22;17394;50.890;4.724;2023-05-07T12:40:42;19.80;99.90
30628;DHT22;17394;50.890;4.724;2023-05-07T12:43:15;19.80;99.90
30628;DHT22;17394;50.890;4.724;2023-05-07T12:45:43;19.70;99.90
30628;DHT22;17394;50.890;4.724;2023-05-07T12:48:09;19.80;99.90
30628;DHT22;17394;50.890;4.724;2023-05-07T12:50:35;19.90;99.90
30628;DHT22;17394;50.890;4.724;2023-05-07T12:53:05;19.90;99.90
30628;DHT22;17394;50.890;4.724;2023-05-07T12:55:31;19.90;99.90
30628;DHT22;17394;50.890;4.724;2023-05-07T12:58:02;20.00;99.90
30628;DHT22;17394;50.890;4.724;2023-05-07T13:00:41;20.10;99.90
30628;DHT22;17394;50.890;4.724;2023-05-07T13:03:09;19.90;99.90
30628;DHT22;17394;50.890;4.724;2023-05-07T13:05:35;19.90;99.90
30628;DHT22;17394;50.890;4.724;2023-05-07T13:08:03;19.90;99.90
30628;DHT22;17394;50.890;4.724;2023-05-07T13:10:30;19.90;99.90
30628;DHT22;17394;50.890;4.724;2023-05-07T13:13:04;19.90;99.90
30628;DHT22;17394;50.890;4.724;2023-05-07T13:15:30;19.80;99.90
30628;DHT22;17394;50.890;4.724;2023-05-07T13:17:56;19.80;99.90
30628;DHT22;17394;50.890;4.724;2023-05-07T13:20:24;19.80;99.90
30628;DHT22;17394;50.890;4.724;2023-05-07T13:22:50;19.70;99.90
30628;DHT22;17394;50.890;4.724;2023-05-07T13:25:17;19.60;99.90
30628;DHT22;17394;50.890;4.724;2023-05-07T13:27:49;19.50;99.90
30628;DHT22;17394;50.890;4.724;2023-05-07T13:30:16;19.50;99.90
30628;DHT22;17394;50.890;4.724;2023-05-07T13:32:44;19.60;99.90
30628;DHT22;17394;50.890;4.724;2023-05-07T13:37:57;19.80;99.90
30628;DHT22;17394;50.890;4.724;2023-05-07T13:40:33;19.80;99.90
30628;DHT22;17394;50.890;4.724;2023-05-07T13:42:59;19.80;99.90
30628;DHT22;17394;50.890;4.724;2023-05-07T13:45:28;19.70;99.90
30628;DHT22;17394;50.890;4.724;2023-05-07T13:47:55;19.70;99.90
30628;DHT22;17394;50.890;4.724;2023-05-07T13:50:21;19.70;99.90
30628;DHT22;17394;50.890;4.724;2023-05-07T13:52:48;19.50;99.90
30628;DHT22;17394;50.890;4.724;2023-05-07T13:55:17;19.60;99.90
30628;DHT22;17394;50.890;4.724;2023-05-07T13:57:43;19.60;99.90
30628;DHT22;17394;50.890;4.724;2023-05-07T14:00:09;19.60;99.90
30628;DHT22;17394;50.890;4.724;2023-05-07T14:02:36;19.50;99.90
30628;DHT22;17394;50.890;4.724;2023-05-07T14:05:01;19.50;99.90
30628;DHT22;17394;50.890;4.724;2023-05-07T14:07:28;19.50;99.90
30628;DHT22;17394;50.890;4.724;2023-05-07T14:09:54;19.50;99.90
30628;DHT22;17394;50.890;4.724;2023-05-07T14:12:26;19.50;99.90
30628;DHT22;17394;50.890;4.724;2023-05-07T14:15:00;19.40;99.90
30628;DHT22;17394;50.890;4.724;2023-05-07T14:17:26;19.50;99.90
30628;DHT22;17394;50.890;4.724;2023-05-07T14:19:52;19.40;99.90
30628;DHT22;17394;50.890;4.724;2023-05-07T14:22:22;19.40;99.90
30628;DHT22;17394;50.890;4.724;2023-05-07T14:24:49;19.30;99.90
30628;DHT22;17394;50.890;4.724;2023-05-07T14:27:15;19.20;99.90
30628;DHT22;17394;50.890;4.724;2023-05-07T14:29:41;19.30;99.90
30628;DHT22;17394;50.890;4.724;2023-05-07T14:32:07;19.30;99.90
30628;DHT22;17394;50.890;4.724;2023-05-07T14:34:33;19.30;99.90
30628;DHT22;17394;50.890;4.724;2023-05-07T14:36:59;19.30;99.90
30628;DHT22;17394;50.890;4.724;2023-05-07T14:39:25;19.20;99.90
30628;DHT22;17394;50.890;4.724;2023-05-07T14:41:51;19.30;99.90
30628;DHT22;17394;50.890;4.724;2023-05-07T14:44:20;19.30;99.90
30628;DHT22;17394;50.890;4.724;2023-05-07T14:46:49;19.40;99.90
30628;DHT22;17394;50.890;4.724;2023-05-07T14:49:15;19.40;99.90
30628;DHT22;17394;50.890;4.724;2023-05-07T14:51:44;19.50;99.90
30628;DHT22;17394;50.890;4.724;2023-05-07T14:54:11;19.60;99.90
30628;DHT22;17394;50.890;4.724;2023-05-07T14:56:37;19.70;99.90
30628;DHT22;17394;50.890;4.724;2023-05-07T14:59:03;19.60;99.90
30628;DHT22;17394;50.890;4.724;2023-05-07T15:01:33;19.60;99.90
30628;DHT22;17394;50.890;4.724;2023-05-07T15:04:01;19.70;99.90
30628;DHT22;17394;50.890;4.724;2023-05-07T15:06:28;19.70;99.90
30628;DHT22;17394;50.890;4.724;2023-05-07T15:08:54;19.70;99.90
30628;DHT22;17394;50.890;4.724;2023-05-07T15:11:20;19.70;99.90
30628;DHT22;17394;50.890;4.724;2023-05-07T15:13:46;19.80;99.90
30628;DHT22;17394;50.890;4.724;2023-05-07T15:16:12;19.70;99.90
30628;DHT22;17394;50.890;4.724;2023-05-07T15:18:38;19.70;99.90
30628;DHT22;17394;50.890;4.724;2023-05-07T15:21:04;19.80;99.90
30628;DHT22;17394;50.890;4.724;2023-05-07T15:23:30;19.80;99.90
30628;DHT22;17394;50.890;4.724;2023-05-07T15:25:55;19.80;99.90
30628;DHT22;17394;50.890;4.724;2023-05-07T15:28:21;19.80;99.90
30628;DHT22;17394;50.890;4.724;2023-05-07T15:30:48;19.80;99.90
30628;DHT22;17394;50.890;4.724;2023-05-07T15:33:13;19.80;99.90
30628;DHT22;17394;50.890;4.724;2023-05-07T15:35:39;19.80;99.90
30628;DHT22;17394;50.890;4.724;2023-05-07T15:38:05;19.80;99.90
30628;DHT22;17394;50.890;4.724;2023-05-07T15:40:31;19.80;99.90
30628;DHT22;17394;50.890;4.724;2023-05-07T15:43:01;19.90;99.90
30628;DHT22;17394;50.890;4.724;2023-05-07T15:45:29;20.00;99.90
30628;DHT22;17394;50.890;4.724;2023-05-07T15:47:55;20.00;99.90